Terminal Aerodrome Forecast
Issued by NWS Grand Forks, ND

Home | Current Version | Previous Version | Text Only | Print | Product List | Glossary Off
Versions: 1 2 3 4 5 6 7 8 9 10 11 12 13 14 15 16 17

478
FTUS43 KFGF 031720
TAFFAR
TAF
KFAR 031720Z 0318/0418 32008KT P6SM BKN150
     FM032300 25006KT P6SM BKN060
     FM040600 26006KT P6SM -SN OVC030
     FM041200 29005KT P6SM BKN020
     FM041400 33006KT P6SM BKN015=

USA.gov is the U.S. government's official web portal to all federal, state and local government web resources and services.